createdAt,value
2018-07-19T00:00:20.245Z,61.94
2018-07-19T00:01:20.248Z,61.75
2018-07-19T00:02:20.240Z,62.13
2018-07-19T00:03:20.232Z,61.84
2018-07-19T00:04:20.231Z,61.65
2018-07-19T00:05:20.229Z,61.52
2018-07-19T00:06:20.228Z,61.94
2018-07-19T00:07:20.907Z,61.65
2018-07-19T00:08:20.222Z,61.65
2018-07-19T00:09:20.225Z,61.17
2018-07-19T00:10:20.225Z,61.65
2018-07-19T00:11:20.217Z,61.94
2018-07-19T00:12:20.214Z,61.62
2018-07-19T00:13:20.206Z,61.65
2018-07-19T00:14:20.210Z,61.65
2018-07-19T00:15:20.202Z,61.81
2018-07-19T00:16:20.200Z,61.91
2018-07-19T00:17:20.197Z,61.62
2018-07-19T00:18:20.198Z,61.72
2018-07-19T00:19:20.200Z,61.81
2018-07-19T00:20:20.188Z,61.52
2018-07-19T00:21:20.186Z,61.81
2018-07-19T00:22:20.184Z,61.72
2018-07-19T00:23:20.187Z,61.72
2018-07-19T00:24:20.183Z,61.62
2018-07-19T00:25:20.184Z,61.81
2018-07-19T00:26:20.173Z,61.43
2018-07-19T00:27:20.174Z,61.72
2018-07-19T00:28:20.168Z,61.91
2018-07-19T00:29:20.165Z,61.91
2018-07-19T00:30:20.176Z,62.39
2018-07-19T00:31:20.161Z,62.39
2018-07-19T00:32:20.160Z,61.62
2018-07-19T00:33:20.158Z,61.62
2018-07-19T00:34:20.159Z,61.81
2018-07-19T00:35:20.153Z,62.19
2018-07-19T00:36:20.159Z,62.19
2018-07-19T00:37:20.155Z,62.68
2018-07-19T00:38:20.143Z,62.39
2018-07-19T00:39:20.143Z,62.01
2018-07-19T00:40:20.137Z,62.48
2018-07-19T00:41:20.170Z,62.48
2018-07-19T00:42:20.131Z,62.39
2018-07-19T00:43:20.167Z,62.39
2018-07-19T00:44:20.126Z,62.39
2018-07-19T00:45:20.127Z,62.39
2018-07-19T00:46:20.124Z,62.48
2018-07-19T00:47:20.118Z,62.96
2018-07-19T00:48:20.117Z,62.48
2018-07-19T00:49:20.113Z,62.48
2018-07-19T00:50:20.111Z,62.58
2018-07-19T00:51:20.105Z,62.29
2018-07-19T00:52:20.114Z,61.81
2018-07-19T00:53:20.109Z,62.10
2018-07-19T00:54:20.097Z,62.39
2018-07-19T00:55:20.103Z,62.19
2018-07-19T00:56:20.095Z,61.72
2018-07-19T00:57:20.090Z,61.81
2018-07-19T00:58:20.091Z,61.43
2018-07-19T00:59:20.089Z,62.01
2018-07-19T01:00:20.080Z,61.81
2018-07-19T01:01:20.078Z,61.62
2018-07-19T01:02:20.075Z,62.01
2018-07-19T01:03:20.073Z,61.52
2018-07-19T01:04:20.074Z,61.91
2018-07-19T01:05:20.072Z,61.43
2018-07-19T01:06:20.068Z,61.62
2018-07-19T01:07:20.077Z,61.62
2018-07-19T01:08:20.062Z,61.81
2018-07-19T01:09:20.059Z,61.91
2018-07-19T01:10:20.053Z,61.69
2018-07-19T01:11:20.931Z,61.49
2018-07-19T01:12:20.049Z,61.91
2018-07-19T01:13:20.050Z,61.98
2018-07-19T01:14:20.043Z,61.59
2018-07-19T01:15:20.040Z,62.55
2018-07-19T01:16:20.040Z,62.36
2018-07-19T01:17:20.045Z,63.03
2018-07-19T01:18:20.033Z,62.74
2018-07-19T01:19:20.040Z,62.55
2018-07-19T01:20:20.029Z,63.12
2018-07-19T01:21:20.026Z,63.03
2018-07-19T01:22:20.032Z,63.32
2018-07-19T01:23:20.025Z,63.03
2018-07-19T01:24:20.016Z,63.22
2018-07-19T01:25:20.017Z,63.89
2018-07-19T01:26:20.010Z,64.18
2018-07-19T01:27:20.011Z,64.66
2018-07-19T01:28:20.024Z,64.47
2018-07-19T01:29:20.005Z,64.56
2018-07-19T01:30:19.998Z,64.82
2018-07-19T01:31:19.995Z,64.53
2018-07-19T01:32:19.995Z,63.09
2018-07-19T01:33:19.991Z,64.34
2018-07-19T01:34:19.987Z,64.25
2018-07-19T01:35:19.988Z,64.34
2018-07-19T01:36:19.984Z,64.63
2018-07-19T01:37:19.983Z,65.20
2018-07-19T01:38:20.952Z,65.20
2018-07-19T01:39:20.953Z,65.39
2018-07-19T01:40:19.973Z,64.82
2018-07-19T01:41:19.972Z,65.30
2018-07-19T01:42:19.983Z,65.78
2018-07-19T01:43:19.961Z,66.22
2018-07-19T01:44:19.965Z,65.75
2018-07-19T01:45:19.958Z,66.42
2018-07-19T01:46:19.954Z,66.71
2018-07-19T01:47:20.457Z,66.32
2018-07-19T01:48:19.950Z,66.61
2018-07-19T01:49:19.946Z,66.51
2018-07-19T01:50:19.940Z,66.32
2018-07-19T01:51:19.942Z,66.55
2018-07-19T01:52:26.451Z,66.42
2018-07-19T01:53:19.932Z,66.51
2018-07-19T01:54:19.928Z,66.22
2018-07-19T01:55:19.925Z,66.51
2018-07-19T01:56:19.927Z,66.71
2018-07-19T01:57:19.923Z,67.18
2018-07-19T01:58:19.918Z,67.47
2018-07-19T01:59:19.919Z,67.38
2018-07-19T02:00:19.928Z,67.38
2018-07-19T02:01:19.910Z,67.95
2018-07-19T02:02:19.903Z,67.09
2018-07-19T02:03:19.904Z,67.66
2018-07-19T02:04:19.898Z,67.85
2018-07-19T02:05:19.903Z,67.47
2018-07-19T02:06:34.457Z,68.33
2018-07-19T02:07:19.889Z,68.52
2018-07-19T02:08:19.896Z,68.52
2018-07-19T02:09:19.883Z,68.52
2018-07-19T02:10:19.882Z,68.91
2018-07-19T02:11:19.895Z,68.62
2018-07-19T02:12:19.877Z,68.62
2018-07-19T02:13:19.877Z,68.52
2018-07-19T02:14:19.870Z,68.91
2018-07-19T02:15:19.866Z,68.52
2018-07-19T02:16:19.864Z,68.81
2018-07-19T02:17:19.887Z,68.62
2018-07-19T02:18:19.857Z,68.72
2018-07-19T02:19:19.853Z,67.76
2018-07-19T02:20:19.854Z,68.43
2018-07-19T02:21:19.849Z,68.91
2018-07-19T02:22:19.848Z,69.01
2018-07-19T02:23:19.842Z,68.91
2018-07-19T02:24:19.842Z,69.01
2018-07-19T02:25:19.840Z,69.20
2018-07-19T02:26:19.837Z,68.62
2018-07-19T02:27:19.837Z,69.01
2018-07-19T02:28:19.831Z,68.91
2018-07-19T02:29:19.824Z,68.91
2018-07-19T02:30:19.822Z,68.62
2018-07-19T02:31:19.822Z,69.58
2018-07-19T02:32:19.816Z,69.10
2018-07-19T02:33:19.814Z,69.58
2018-07-19T02:34:19.808Z,69.01
2018-07-19T02:35:19.804Z,69.48
2018-07-19T02:36:19.801Z,69.10
2018-07-19T02:37:19.801Z,69.39
2018-07-19T02:38:19.798Z,69.58
2018-07-19T02:39:19.795Z,68.91
2018-07-19T02:40:19.789Z,68.81
2018-07-19T02:41:19.788Z,67.28
2018-07-19T02:42:19.791Z,68.43
2018-07-19T02:43:19.781Z,68.91
2018-07-19T02:44:19.776Z,68.91
2018-07-19T02:45:19.777Z,68.91
2018-07-19T02:46:19.777Z,69.01
2018-07-19T02:47:19.772Z,68.72
2018-07-19T02:48:19.765Z,68.91
2018-07-19T02:49:19.766Z,68.81
2018-07-19T02:50:19.760Z,68.43
2018-07-19T02:51:19.754Z,68.62
2018-07-19T02:52:19.762Z,68.72
2018-07-19T02:53:19.754Z,68.91
2018-07-19T02:54:19.749Z,68.97
2018-07-19T02:55:19.744Z,68.72
2018-07-19T02:56:19.739Z,68.91
2018-07-19T02:57:19.752Z,69.58
2018-07-19T02:58:19.740Z,69.01
2018-07-19T02:59:19.731Z,69.48
2018-07-19T03:00:19.727Z,69.45
2018-07-19T03:01:19.728Z,69.48
2018-07-19T03:02:19.724Z,69.01
2018-07-19T03:03:19.722Z,68.72
2018-07-19T03:04:19.715Z,68.81
2018-07-19T03:05:19.718Z,69.29
2018-07-19T03:06:19.710Z,68.91
2018-07-19T03:07:19.708Z,68.72
2018-07-19T03:08:19.703Z,68.62
2018-07-19T03:09:19.697Z,68.72
2018-07-19T03:10:19.692Z,68.62
2018-07-19T03:11:19.694Z,68.81
2018-07-19T03:12:19.694Z,69.01
2018-07-19T03:13:19.690Z,68.33
2018-07-19T03:14:19.684Z,68.59
2018-07-19T03:15:19.693Z,69.01
2018-07-19T03:16:19.678Z,68.87
2018-07-19T03:17:19.674Z,69.17
2018-07-19T03:18:19.671Z,68.87
2018-07-19T03:19:19.667Z,67.82
2018-07-19T03:20:19.664Z,68.97
2018-07-19T03:21:19.697Z,68.68
2018-07-19T03:22:19.655Z,69.26
2018-07-19T03:23:19.659Z,69.83
2018-07-19T03:24:19.652Z,70.12
2018-07-19T03:25:19.649Z,70.31
2018-07-19T03:26:19.641Z,70.12
2018-07-19T03:27:19.638Z,70.70
2018-07-19T03:28:19.637Z,70.50
2018-07-19T03:29:19.638Z,70.50
2018-07-19T03:30:19.630Z,70.89
2018-07-19T03:31:19.629Z,70.60
2018-07-19T03:32:19.622Z,70.70
2018-07-19T03:33:19.625Z,71.27
2018-07-19T03:34:19.618Z,71.17
2018-07-19T03:35:19.612Z,71.27
2018-07-19T03:36:19.607Z,71.27
2018-07-19T03:37:19.605Z,70.89
2018-07-19T03:38:19.606Z,71.75
2018-07-19T03:39:19.599Z,71.84
2018-07-19T03:40:19.601Z,71.75
2018-07-19T03:41:19.593Z,71.56
2018-07-19T03:42:19.594Z,71.94
2018-07-19T03:43:19.588Z,72.58
2018-07-19T03:44:19.586Z,73.44
2018-07-19T03:45:19.583Z,72.67
2018-07-19T03:46:19.626Z,72.96
2018-07-19T03:47:19.572Z,72.96
2018-07-19T03:48:19.569Z,73.91
2018-07-19T03:49:19.567Z,73.82
2018-07-19T03:50:19.563Z,73.44
2018-07-19T03:51:19.560Z,74.20
2018-07-19T03:52:19.563Z,74.40
2018-07-19T03:53:19.559Z,73.44
2018-07-19T03:54:19.555Z,73.44
2018-07-19T03:55:19.547Z,74.30
2018-07-19T03:56:19.548Z,73.72
2018-07-19T03:57:19.540Z,74.11
2018-07-19T03:58:19.534Z,74.77
2018-07-19T03:59:19.539Z,74.30
2018-07-19T04:00:19.528Z,74.77
2018-07-19T04:01:19.527Z,74.58
2018-07-19T04:02:19.521Z,74.20
2018-07-19T04:03:19.522Z,74.77
2018-07-19T04:04:19.514Z,74.82
2018-07-19T04:05:19.516Z,74.40
2018-07-19T04:06:19.511Z,73.54
2018-07-19T04:07:19.504Z,73.24
2018-07-19T04:08:19.500Z,73.34
2018-07-19T04:09:19.500Z,73.86
2018-07-19T04:10:19.495Z,73.76
2018-07-19T04:11:19.493Z,73.57
2018-07-19T04:12:19.500Z,73.95
2018-07-19T04:13:19.492Z,73.38
2018-07-19T04:14:19.495Z,72.96
2018-07-19T04:15:19.479Z,71.66
2018-07-19T04:16:19.475Z,73.28
2018-07-19T04:17:19.472Z,73.57
2018-07-19T04:18:19.472Z,73.38
2018-07-19T04:19:19.469Z,73.57
2018-07-19T04:20:19.464Z,72.71
2018-07-19T04:21:19.463Z,72.71
2018-07-19T04:22:19.454Z,72.61
2018-07-19T04:23:19.452Z,72.52
2018-07-19T04:24:19.456Z,72.80
2018-07-19T04:25:19.443Z,71.46
2018-07-19T04:26:19.440Z,71.84
2018-07-19T04:27:19.439Z,73.38
2018-07-19T04:28:19.462Z,73.66
2018-07-19T04:29:19.433Z,73.47
2018-07-19T04:30:19.426Z,73.38
2018-07-19T04:31:19.424Z,73.38
2018-07-19T04:32:19.481Z,72.90
2018-07-19T04:33:19.425Z,72.61
2018-07-19T04:34:19.413Z,72.71
2018-07-19T04:35:19.420Z,73.09
2018-07-19T04:36:19.411Z,72.61
2018-07-19T04:37:19.405Z,73.19
2018-07-19T04:38:19.407Z,73.19
2018-07-19T04:39:19.404Z,73.09
2018-07-19T04:40:19.395Z,72.71
2018-07-19T04:41:19.395Z,72.80
2018-07-19T04:42:19.391Z,72.80
2018-07-19T04:43:19.386Z,72.99
2018-07-19T04:44:19.388Z,72.80
2018-07-19T04:45:19.386Z,72.71
2018-07-19T04:46:19.392Z,72.61
2018-07-19T04:47:19.376Z,72.61
2018-07-19T04:48:19.396Z,72.99
2018-07-19T04:49:19.368Z,72.71
2018-07-19T04:50:19.382Z,72.42
2018-07-19T04:51:19.357Z,72.71
2018-07-19T04:52:19.352Z,71.75
2018-07-19T04:53:19.354Z,71.69
2018-07-19T04:54:19.351Z,71.69
2018-07-19T04:55:19.349Z,71.31
2018-07-19T04:56:19.342Z,70.73
2018-07-19T04:57:19.348Z,70.83
2018-07-19T04:58:19.336Z,71.21
2018-07-19T04:59:19.331Z,70.25
2018-07-19T05:00:19.345Z,70.44
2018-07-19T05:01:19.329Z,69.68
2018-07-19T05:02:19.328Z,70.06
2018-07-19T05:03:19.327Z,69.71
2018-07-19T05:04:19.320Z,69.62
2018-07-19T05:05:19.318Z,68.75
2018-07-19T05:06:19.309Z,68.95
2018-07-19T05:07:19.307Z,68.85
2018-07-19T05:08:19.304Z,68.27
2018-07-19T05:09:19.306Z,66.83
2018-07-19T05:10:19.300Z,66.96
2018-07-19T05:11:19.301Z,66.10
2018-07-19T05:12:19.295Z,66.29
2018-07-19T05:13:19.296Z,66.10
2018-07-19T05:14:19.289Z,66.29
2018-07-19T05:15:19.287Z,65.33
2018-07-19T05:16:19.285Z,65.23
2018-07-19T05:17:19.280Z,65.05
2018-07-19T05:18:19.275Z,64.85
2018-07-19T05:19:19.275Z,64.28
2018-07-19T05:20:19.277Z,64.40
2018-07-19T05:21:19.311Z,64.98
2018-07-19T05:22:19.270Z,64.40
2018-07-19T05:23:19.262Z,64.31
2018-07-19T05:24:19.275Z,64.59
2018-07-19T05:25:19.260Z,64.50
2018-07-19T05:26:19.255Z,64.22
2018-07-19T05:27:19.252Z,63.09
2018-07-19T05:28:19.252Z,62.81
2018-07-19T05:29:19.253Z,63.09
2018-07-19T05:30:19.247Z,61.65
2018-07-19T05:31:19.256Z,61.36
2018-07-19T05:32:19.246Z,62.04
2018-07-19T05:33:19.245Z,62.04
2018-07-19T05:34:19.245Z,61.97
2018-07-19T05:35:19.236Z,61.84
2018-07-19T05:36:19.240Z,61.11
2018-07-19T05:37:19.244Z,60.72
2018-07-19T05:38:19.254Z,60.24
2018-07-19T05:39:19.233Z,60.63
2018-07-19T05:40:19.233Z,59.99
2018-07-19T05:41:19.235Z,59.57
2018-07-19T05:42:19.241Z,60.08
2018-07-19T05:43:19.224Z,59.22
2018-07-19T05:44:19.229Z,60.08
2018-07-19T05:45:19.234Z,60.75
2018-07-19T05:46:19.224Z,59.50
2018-07-19T05:47:19.226Z,58.06
2018-07-19T05:48:19.224Z,59.63
2018-07-19T05:49:19.222Z,59.63
2018-07-19T05:50:19.221Z,58.76
2018-07-19T05:51:19.221Z,59.05
2018-07-19T05:52:19.224Z,58.70
2018-07-19T05:53:19.223Z,58.50
2018-07-19T05:54:19.223Z,57.83
2018-07-19T05:55:19.224Z,56.48
2018-07-19T05:56:19.220Z,56.48
2018-07-19T05:57:19.221Z,55.90
2018-07-19T05:58:19.311Z,56.60
2018-07-19T05:59:19.229Z,56.70
2018-07-19T06:00:19.222Z,56.60
2018-07-19T06:01:19.226Z,55.93
2018-07-19T06:02:19.226Z,56.48
2018-07-19T06:03:19.222Z,56.29
2018-07-19T06:04:19.225Z,55.26
2018-07-19T06:05:19.229Z,55.81
2018-07-19T06:06:19.225Z,56.29
2018-07-19T06:07:19.230Z,56.10
2018-07-19T06:08:19.229Z,56.48
2018-07-19T06:09:19.237Z,55.71
2018-07-19T06:10:19.226Z,55.90
2018-07-19T06:11:19.227Z,55.90
2018-07-19T06:12:19.251Z,56.00
2018-07-19T06:13:19.234Z,56.20
2018-07-19T06:14:19.233Z,56.48
2018-07-19T06:15:19.233Z,56.96
2018-07-19T06:16:19.230Z,56.58
2018-07-19T06:17:19.230Z,56.67
2018-07-19T06:18:19.230Z,56.77
2018-07-19T06:19:19.231Z,57.15
2018-07-19T06:20:19.230Z,56.77
2018-07-19T06:21:19.237Z,56.77
2018-07-19T06:22:19.234Z,56.00
2018-07-19T06:23:19.242Z,56.51
2018-07-19T06:24:19.237Z,56.58
2018-07-19T06:25:19.241Z,56.70
2018-07-19T06:26:19.237Z,57.18
2018-07-19T06:27:19.238Z,56.60
2018-07-19T06:28:19.269Z,55.65
2018-07-19T06:29:19.237Z,55.07
2018-07-19T06:30:19.235Z,55.00
2018-07-19T06:31:19.256Z,55.00
2018-07-19T06:32:19.236Z,55.00
2018-07-19T06:33:19.239Z,53.94
2018-07-19T06:34:19.239Z,53.55
2018-07-19T06:35:19.251Z,53.55
2018-07-19T06:36:19.243Z,53.17
2018-07-19T06:37:19.248Z,54.03
2018-07-19T06:38:19.240Z,54.52
2018-07-19T06:39:19.246Z,53.84
2018-07-19T06:40:20.106Z,55.00
2018-07-19T06:41:19.267Z,54.42
2018-07-19T06:42:19.245Z,54.71
2018-07-19T06:43:20.112Z,54.74
2018-07-19T06:44:19.251Z,54.44
2018-07-19T06:45:19.247Z,54.06
2018-07-19T06:46:19.249Z,54.25
2018-07-19T06:47:19.253Z,53.29
2018-07-19T06:48:19.254Z,53.03
2018-07-19T06:49:19.310Z,52.93
2018-07-19T06:50:19.255Z,52.45
2018-07-19T06:51:19.256Z,52.19
2018-07-19T06:52:19.257Z,52.47
2018-07-19T06:53:19.260Z,52.37
2018-07-19T06:54:19.258Z,51.92
2018-07-19T06:55:19.279Z,52.21
2018-07-19T06:56:19.280Z,51.07
2018-07-19T06:57:19.267Z,50.71
2018-07-19T06:58:19.268Z,49.55
2018-07-19T06:59:19.290Z,48.90
2018-07-19T07:00:19.273Z,48.54
2018-07-19T07:01:19.285Z,48.83
2018-07-19T07:02:19.275Z,46.80
2018-07-19T07:03:19.278Z,47.09
2018-07-19T07:04:19.280Z,47.38
2018-07-19T07:05:19.287Z,46.42
2018-07-19T07:06:19.286Z,47.96
2018-07-19T07:07:19.290Z,47.67
2018-07-19T07:08:19.290Z,46.83
2018-07-19T07:09:19.299Z,45.49
2018-07-19T07:10:19.299Z,45.01
2018-07-19T07:11:19.305Z,44.16
2018-07-19T07:12:19.305Z,42.51
2018-07-19T07:13:19.312Z,41.97
2018-07-19T07:14:19.313Z,41.97
2018-07-19T07:15:19.317Z,42.65
2018-07-19T07:16:19.320Z,42.75
2018-07-19T07:17:19.336Z,40.71
2018-07-19T07:18:19.333Z,40.91
2018-07-19T07:19:19.336Z,41.27
2018-07-19T07:20:19.362Z,41.95
2018-07-19T07:21:20.151Z,41.08
2018-07-19T07:22:19.354Z,41.25
2018-07-19T07:23:19.357Z,41.93
2018-07-19T07:24:19.363Z,42.03
2018-07-19T07:25:19.372Z,42.10
2018-07-19T07:26:19.382Z,41.82
2018-07-19T07:27:19.384Z,41.72
2018-07-19T07:28:19.473Z,42.57
2018-07-19T07:29:19.392Z,43.05
2018-07-19T07:30:19.392Z,41.89
2018-07-19T07:31:19.400Z,41.04
2018-07-19T07:32:19.405Z,41.21
2018-07-19T07:33:19.427Z,41.79
2018-07-19T07:34:19.417Z,41.70
2018-07-19T07:35:19.425Z,41.60
2018-07-19T07:36:19.432Z,41.62
2018-07-19T07:37:19.432Z,40.94
2018-07-19T07:38:19.454Z,41.14
2018-07-19T07:39:19.445Z,41.06
2018-07-19T07:40:19.455Z,39.80
2018-07-19T07:41:19.461Z,39.24
2018-07-19T07:42:19.465Z,39.04
2018-07-19T07:43:19.470Z,38.95
2018-07-19T07:44:19.503Z,37.98
2018-07-19T07:45:19.478Z,37.41
2018-07-19T07:46:19.491Z,37.41
2018-07-19T07:47:19.490Z,37.23
2018-07-19T07:48:19.499Z,37.53
2018-07-19T07:49:19.497Z,36.46
2018-07-19T07:50:19.504Z,36.08
2018-07-19T07:51:19.531Z,36.46
2018-07-19T07:52:19.517Z,34.99
2018-07-19T07:53:19.519Z,34.69
2018-07-19T07:54:19.587Z,35.15
2018-07-19T07:55:19.530Z,35.73
2018-07-19T07:56:19.535Z,36.32
2018-07-19T07:57:19.539Z,36.70
2018-07-19T07:58:19.546Z,37.09
2018-07-19T07:59:19.602Z,36.41
2018-07-19T08:00:19.555Z,36.90
2018-07-19T08:01:19.556Z,36.72
2018-07-19T08:02:19.566Z,36.82
2018-07-19T08:03:19.577Z,35.57
2018-07-19T08:04:19.571Z,36.44
2018-07-19T08:05:19.596Z,36.35
2018-07-19T08:06:19.584Z,36.46
2018-07-19T08:07:19.591Z,35.40
2018-07-19T08:08:19.588Z,35.49
2018-07-19T08:09:19.595Z,36.10
2018-07-19T08:10:19.597Z,34.91
2018-07-19T08:11:19.599Z,35.01
2018-07-19T08:12:19.605Z,36.06
2018-07-19T08:13:19.611Z,36.35
2018-07-19T08:14:19.615Z,37.23
2018-07-19T08:15:19.621Z,37.79
2018-07-19T08:16:19.628Z,37.41
2018-07-19T08:17:19.628Z,36.62
2018-07-19T08:18:19.633Z,36.24
2018-07-19T08:19:19.634Z,37.01
2018-07-19T08:20:19.640Z,37.59
2018-07-19T08:21:19.645Z,37.59
2018-07-19T08:22:19.650Z,38.17
2018-07-19T08:23:19.662Z,37.98
2018-07-19T08:24:19.656Z,37.03
2018-07-19T08:25:19.663Z,36.18
2018-07-19T08:26:19.665Z,36.08
2018-07-19T08:27:19.676Z,36.00
2018-07-19T08:28:19.681Z,36.19
2018-07-19T08:29:19.685Z,36.58
2018-07-19T08:30:19.687Z,35.92
2018-07-19T08:31:19.689Z,35.45
2018-07-19T08:32:19.741Z,34.38
2018-07-19T08:33:20.692Z,33.80
2018-07-19T08:34:19.700Z,33.78
2018-07-19T08:35:19.711Z,35.33
2018-07-19T08:36:19.713Z,34.75
2018-07-19T08:37:19.717Z,34.19
2018-07-19T08:38:19.720Z,34.09
2018-07-19T08:39:19.727Z,34.48
2018-07-19T08:40:19.737Z,33.99
2018-07-19T08:41:19.736Z,34.85
2018-07-19T08:42:19.740Z,35.71
2018-07-19T08:43:19.745Z,35.78
2018-07-19T08:44:19.746Z,36.36
2018-07-19T08:45:19.749Z,36.46
2018-07-19T08:46:19.754Z,36.35
2018-07-19T08:47:19.758Z,36.82
2018-07-19T08:48:19.761Z,37.30
2018-07-19T08:49:19.769Z,36.80
2018-07-19T08:50:19.774Z,37.67
2018-07-19T08:51:19.779Z,37.67
2018-07-19T08:52:19.783Z,39.03
2018-07-19T08:53:19.785Z,36.93
2018-07-19T08:54:19.791Z,37.43
2018-07-19T08:55:19.791Z,36.19
2018-07-19T08:56:19.797Z,35.32
2018-07-19T08:57:19.805Z,35.22
2018-07-19T08:58:19.805Z,36.19
2018-07-19T08:59:19.812Z,36.29
2018-07-19T09:00:19.832Z,34.93
2018-07-19T09:01:19.818Z,35.21
2018-07-19T09:02:19.854Z,35.48
2018-07-19T09:03:19.835Z,36.33
2018-07-19T09:04:19.837Z,36.72
2018-07-19T09:05:19.848Z,37.30
2018-07-19T09:06:19.848Z,36.91
2018-07-19T09:07:19.849Z,38.87
2018-07-19T09:08:19.854Z,37.34
2018-07-19T09:09:19.866Z,36.27
2018-07-19T09:10:19.860Z,35.57
2018-07-19T09:11:19.876Z,36.24
2018-07-19T09:12:19.905Z,36.91
2018-07-19T09:13:19.890Z,38.17
2018-07-19T09:14:19.885Z,38.29
2018-07-19T09:15:19.925Z,37.51
2018-07-19T09:16:19.902Z,37.03
2018-07-19T09:17:19.920Z,36.18
2018-07-19T09:18:19.904Z,36.35
2018-07-19T09:19:19.928Z,37.63
2018-07-19T09:20:19.918Z,36.76
2018-07-19T09:21:19.929Z,36.66
2018-07-19T09:22:19.922Z,36.68
2018-07-19T09:23:19.932Z,37.07
2018-07-19T09:24:19.933Z,36.50
2018-07-19T09:25:19.946Z,34.85
2018-07-19T09:26:19.942Z,34.79
2018-07-19T09:27:19.946Z,33.54
2018-07-19T09:28:20.733Z,32.02
2018-07-19T09:29:19.955Z,31.06
2018-07-19T09:30:19.960Z,31.37
2018-07-19T09:31:19.968Z,30.29
2018-07-19T09:32:19.973Z,30.02
2018-07-19T09:33:19.977Z,28.96
2018-07-19T09:34:19.984Z,29.17
2018-07-19T09:35:19.994Z,28.40
2018-07-19T09:36:19.998Z,28.13
2018-07-19T09:37:20.739Z,28.61
2018-07-19T09:38:20.030Z,28.63
2018-07-19T09:39:20.015Z,28.54
2018-07-19T09:40:20.024Z,27.76
2018-07-19T09:41:20.033Z,27.47
2018-07-19T09:42:20.033Z,27.77
2018-07-19T09:43:20.040Z,27.77
2018-07-19T09:44:20.051Z,27.28
2018-07-19T09:45:20.053Z,27.76
2018-07-19T09:46:20.062Z,26.88
2018-07-19T09:47:20.068Z,27.66
2018-07-19T09:48:20.108Z,27.76
2018-07-19T09:49:20.086Z,27.67
2018-07-19T09:50:20.092Z,27.19
2018-07-19T09:51:20.104Z,26.60
2018-07-19T09:52:20.113Z,26.99
2018-07-19T09:53:20.125Z,25.92
2018-07-19T09:54:20.129Z,27.00
2018-07-19T09:55:20.141Z,25.84
2018-07-19T09:56:20.147Z,24.96
2018-07-19T09:57:20.159Z,25.17
2018-07-19T09:58:20.166Z,25.27
2018-07-19T09:59:20.189Z,24.97
2018-07-19T10:00:20.183Z,24.57
2018-07-19T10:01:20.235Z,25.74
2018-07-19T10:02:20.205Z,25.73
2018-07-19T10:03:20.206Z,25.44
2018-07-19T10:04:20.218Z,26.12
2018-07-19T10:05:20.225Z,26.51
2018-07-19T10:06:20.232Z,26.12
2018-07-19T10:07:20.259Z,26.32
2018-07-19T10:08:20.251Z,26.14
2018-07-19T10:09:20.265Z,26.34
2018-07-19T10:10:20.332Z,25.27
2018-07-19T10:11:20.277Z,24.96
2018-07-19T10:12:20.286Z,25.94
2018-07-19T10:13:21.267Z,27.01
2018-07-19T10:14:20.308Z,25.85
2018-07-19T10:15:20.335Z,25.65
2018-07-19T10:16:20.324Z,25.33
2018-07-19T10:17:20.365Z,26.57
2018-07-19T10:18:20.349Z,27.75
2018-07-19T10:19:20.370Z,27.64
2018-07-19T10:20:20.427Z,27.65
2018-07-19T10:21:20.376Z,28.65
2018-07-19T10:22:20.393Z,26.21
2018-07-19T10:23:20.427Z,26.31
2018-07-19T10:24:20.489Z,27.09
2018-07-19T10:25:20.422Z,27.77
2018-07-19T10:26:20.430Z,28.26
2018-07-19T10:27:20.445Z,27.88
2018-07-19T10:28:20.448Z,27.39
2018-07-19T10:29:20.460Z,26.32
2018-07-19T10:30:20.489Z,26.03
2018-07-19T10:31:20.481Z,27.00
2018-07-19T10:32:20.619Z,26.42
2018-07-19T10:33:20.520Z,25.82
2018-07-19T10:34:20.554Z,27.05
2018-07-19T10:35:20.537Z,27.69
2018-07-19T10:36:20.540Z,29.27
2018-07-19T10:37:20.562Z,29.47
2018-07-19T10:38:20.612Z,28.13
2018-07-19T10:39:20.579Z,27.75
2018-07-19T10:40:20.594Z,27.86
2018-07-19T10:41:20.596Z,27.66
2018-07-19T10:42:20.607Z,28.26
2018-07-19T10:43:20.621Z,27.90
2018-07-19T10:44:20.683Z,26.43
2018-07-19T10:45:20.679Z,27.52
2018-07-19T10:46:21.287Z,26.72
2018-07-19T10:47:20.673Z,26.04
2018-07-19T10:48:20.676Z,26.53
2018-07-19T10:49:20.681Z,26.22
2018-07-19T10:50:20.693Z,27.09
2018-07-19T10:51:20.710Z,27.84
2018-07-19T10:52:20.726Z,28.53
2018-07-19T10:53:20.725Z,27.84
2018-07-19T10:54:20.736Z,28.11
2018-07-19T10:55:20.742Z,28.47
2018-07-19T10:56:20.759Z,28.96
2018-07-19T10:57:20.768Z,29.53
2018-07-19T10:58:20.773Z,29.92
2018-07-19T10:59:20.784Z,29.82
2018-07-19T11:00:20.791Z,29.92
2018-07-19T11:01:20.802Z,29.93
2018-07-19T11:02:20.805Z,28.96
2018-07-19T11:03:20.815Z,28.97
2018-07-19T11:04:20.825Z,28.97
2018-07-19T11:05:20.836Z,28.49
2018-07-19T11:06:20.843Z,28.19
2018-07-19T11:07:20.851Z,29.17
2018-07-19T11:08:20.855Z,28.29
2018-07-19T11:09:20.882Z,28.08
2018-07-19T11:10:20.870Z,28.64
2018-07-19T11:11:20.880Z,29.42
2018-07-19T11:12:20.894Z,29.61
2018-07-19T11:13:20.902Z,29.42
2018-07-19T11:14:20.910Z,30.58
2018-07-19T11:15:20.915Z,30.00
2018-07-19T11:16:20.926Z,29.81
2018-07-19T11:17:20.929Z,29.03
2018-07-19T11:18:20.944Z,28.83
2018-07-19T11:19:20.947Z,29.03
2018-07-19T11:20:20.962Z,28.43
2018-07-19T11:21:20.965Z,28.82
2018-07-19T11:22:20.968Z,29.21
2018-07-19T11:23:20.973Z,29.89
2018-07-19T11:24:20.980Z,29.61
2018-07-19T11:25:20.989Z,28.63
2018-07-19T11:26:20.998Z,28.82
2018-07-19T11:27:21.003Z,29.50
2018-07-19T11:28:21.028Z,28.43
2018-07-19T11:29:21.021Z,28.15
2018-07-19T11:30:21.023Z,27.86
2018-07-19T11:31:21.030Z,28.04
2018-07-19T11:32:21.041Z,28.53
2018-07-19T11:33:21.046Z,29.21
2018-07-19T11:34:21.053Z,29.79
2018-07-19T11:35:21.088Z,29.50
2018-07-19T11:36:21.066Z,29.32
2018-07-19T11:37:21.071Z,28.63
2018-07-19T11:38:21.823Z,28.14
2018-07-19T11:39:21.081Z,28.90
2018-07-19T11:40:21.091Z,28.03
2018-07-19T11:41:21.099Z,27.83
2018-07-19T11:42:21.107Z,28.03
2018-07-19T11:43:21.124Z,28.43
2018-07-19T11:44:21.121Z,27.68
2018-07-19T11:45:21.125Z,26.90
2018-07-19T11:46:21.129Z,26.41
2018-07-19T11:47:21.131Z,27.19
2018-07-19T11:48:21.144Z,26.80
2018-07-19T11:49:21.186Z,27.47
2018-07-19T11:50:21.148Z,27.47
2018-07-19T11:51:21.157Z,28.15
2018-07-19T11:52:22.833Z,28.44
2018-07-19T11:53:21.180Z,29.11
2018-07-19T11:54:21.173Z,28.92
2018-07-19T11:55:21.182Z,28.72
2018-07-19T11:56:21.195Z,29.60
2018-07-19T11:57:21.220Z,29.78
2018-07-19T11:58:21.200Z,30.96
2018-07-19T11:59:21.206Z,29.68
2018-07-19T12:00:21.208Z,29.88
2018-07-19T12:01:21.210Z,30.17
2018-07-19T12:02:21.220Z,30.36
2018-07-19T12:03:21.224Z,30.65
2018-07-19T12:04:21.231Z,30.55
2018-07-19T12:05:21.236Z,30.08
2018-07-19T12:06:21.242Z,29.21
2018-07-19T12:07:21.246Z,28.82
2018-07-19T12:08:21.253Z,29.21
2018-07-19T12:09:21.259Z,29.79
2018-07-19T12:10:21.262Z,28.93
2018-07-19T12:11:21.264Z,28.83
2018-07-19T12:12:21.276Z,28.74
2018-07-19T12:13:21.278Z,28.36
2018-07-19T12:14:21.280Z,28.05
2018-07-19T12:15:21.287Z,28.64
2018-07-19T12:16:21.297Z,28.74
2018-07-19T12:17:21.303Z,28.93
2018-07-19T12:18:21.307Z,29.03
2018-07-19T12:19:21.312Z,29.22
2018-07-19T12:20:21.318Z,28.55
2018-07-19T12:21:21.324Z,28.19
2018-07-19T12:22:21.329Z,27.81
2018-07-19T12:23:21.333Z,26.76
2018-07-19T12:24:21.341Z,27.44
2018-07-19T12:25:21.349Z,26.48
2018-07-19T12:26:21.353Z,25.99
2018-07-19T12:27:21.359Z,25.98
2018-07-19T12:28:21.361Z,26.66
2018-07-19T12:29:21.372Z,26.95
2018-07-19T12:30:21.386Z,27.52
2018-07-19T12:31:21.444Z,27.81
2018-07-19T12:32:21.394Z,27.13
2018-07-19T12:33:21.401Z,27.83
2018-07-19T12:34:21.408Z,27.83
2018-07-19T12:35:21.413Z,27.15
2018-07-19T12:36:21.419Z,26.88
2018-07-19T12:37:21.449Z,25.34
2018-07-19T12:38:21.440Z,24.58
2018-07-19T12:39:21.461Z,24.49
2018-07-19T12:40:21.450Z,23.63
2018-07-19T12:41:22.373Z,22.36
2018-07-19T12:42:21.465Z,22.56
2018-07-19T12:43:21.478Z,22.47
2018-07-19T12:44:21.484Z,21.50
2018-07-19T12:45:21.533Z,21.90
2018-07-19T12:46:21.508Z,21.62
2018-07-19T12:47:21.511Z,21.03
2018-07-19T12:48:21.533Z,21.12
2018-07-19T12:49:21.532Z,21.22
2018-07-19T12:50:21.539Z,21.28
2018-07-19T12:51:21.563Z,23.02
2018-07-19T12:52:21.558Z,23.60